Pagina principale
METAR-TAF:

METAR-TAF

Aeroporti :

Kars, Turchia

latitudine: 40-36N, longitudine: 043-05E, altezza: 1775 m

Osservazione

Il bollettino è stato emesso 1 ora e 8 minuti fa, alle 01:50 UTC
Vento 2 kt da nord-ovest
Temperature 1°C
Umidità 80%
Pressione 1027 hPa
Visibilità 10 km o più
nessuna nube inferiore a 1500 m e nessun cumulonembo

METAR: LTCF 240150Z 32002KT CAVOK 01/M02 Q1027

Ora: 05:58 (02:58 UTC)

Previsione

Il bollettino è stato emesso 1 ora e 18 minuti fa, alle 01:40 UTC
Previsione valida dal 24 alle 03 UTC al 24 alle 12 UTC
Vento 2 kt da direzioni variabili
Visibilità 10 km o più
nessuna nube inferiore a 1500 m e nessun cumulonembo

TAF: LTCF 240140Z 2403/2412 VRB02KT CAVOK

Osservazioni e previsioni meteorologiche di più di 4000 aeroporti (messaggi METAR e TAF).

Le stazioni disponibili sono rappresentate dai dischi gialli e rossi sulla carta.

Puntare il mouse per vedere il nome della stazione.

Clicca sopra per visualizzare le osservazioni e previsioni meteorologiche.

Per cambiare la mappa : fare clic sui pulsanti verdi con una croce nera per ingrandire, il pulsante verde con un trattino per diminuire, o sulla freccia verde per le mappe adiacenti.


METAR-TAF: